sensor_id;sensor_type;location;lat;lon;timestamp;P1;durP1;ratioP1;P2;durP2;ratioP2
63782;SDS011;49925;52.522;5.732;2023-08-07T02:26:21;10.68;;;2.83;;
63782;SDS011;49925;52.522;5.732;2023-08-07T02:28:48;16.70;;;3.17;;
63782;SDS011;49925;52.522;5.732;2023-08-07T02:31:15;11.45;;;2.97;;
63782;SDS011;49925;52.522;5.732;2023-08-07T02:33:43;20.45;;;3.45;;
63782;SDS011;49925;52.522;5.732;2023-08-07T02:36:10;15.25;;;3.30;;
63782;SDS011;49925;52.522;5.732;2023-08-07T02:38:37;14.68;;;3.35;;
63782;SDS011;49925;52.522;5.732;2023-08-07T02:41:05;16.80;;;3.60;;
63782;SDS011;49925;52.522;5.732;2023-08-07T02:43:33;18.75;;;3.88;;
63782;SDS011;49925;52.522;5.732;2023-08-07T02:46:00;23.08;;;4.50;;
63782;SDS011;49925;52.522;5.732;2023-08-07T20:02:50;18.13;;;3.60;;
63782;SDS011;49925;52.522;5.732;2023-08-07T20:05:18;12.23;;;3.55;;
63782;SDS011;49925;52.522;5.732;2023-08-07T20:07:45;10.32;;;3.45;;
63782;SDS011;49925;52.522;5.732;2023-08-07T20:10:12;7.15;;;3.50;;
63782;SDS011;49925;52.522;5.732;2023-08-07T20:12:46;12.32;;;3.80;;
63782;SDS011;49925;52.522;5.732;2023-08-07T20:15:14;15.25;;;3.53;;
63782;SDS011;49925;52.522;5.732;2023-08-07T20:17:45;9.05;;;3.72;;
63782;SDS011;49925;52.522;5.732;2023-08-07T20:20:15;15.30;;;4.25;;
63782;SDS011;49925;52.522;5.732;2023-08-07T20:25:13;12.35;;;3.67;;
63782;SDS011;49925;52.522;5.732;2023-08-07T20:27:41;15.38;;;3.45;;
63782;SDS011;49925;52.522;5.732;2023-08-07T20:30:08;10.45;;;3.42;;
63782;SDS011;49925;52.522;5.732;2023-08-07T20:32:36;9.13;;;3.28;;
63782;SDS011;49925;52.522;5.732;2023-08-07T20:35:04;11.95;;;3.50;;
63782;SDS011;49925;52.522;5.732;2023-08-07T20:37:32;15.18;;;3.45;;
63782;SDS011;49925;52.522;5.732;2023-08-07T20:39:59;11.55;;;3.55;;
63782;SDS011;49925;52.522;5.732;2023-08-07T20:42:27;9.27;;;3.70;;
63782;SDS011;49925;52.522;5.732;2023-08-07T20:44:54;7.95;;;3.25;;
63782;SDS011;49925;52.522;5.732;2023-08-07T20:47:23;12.80;;;4.13;;
63782;SDS011;49925;52.522;5.732;2023-08-07T20:49:51;6.90;;;3.40;;
63782;SDS011;49925;52.522;5.732;2023-08-07T20:52:18;5.75;;;3.17;;
63782;SDS011;49925;52.522;5.732;2023-08-07T20:54:45;12.30;;;3.90;;
63782;SDS011;49925;52.522;5.732;2023-08-07T20:57:12;10.40;;;3.40;;
63782;SDS011;49925;52.522;5.732;2023-08-07T20:59:39;9.52;;;3.63;;
63782;SDS011;49925;52.522;5.732;2023-08-07T21:02:07;16.20;;;3.75;;
63782;SDS011;49925;52.522;5.732;2023-08-07T21:04:34;13.40;;;3.92;;
63782;SDS011;49925;52.522;5.732;2023-08-07T21:07:01;12.75;;;4.15;;
63782;SDS011;49925;52.522;5.732;2023-08-07T21:09:28;12.07;;;4.15;;
63782;SDS011;49925;52.522;5.732;2023-08-07T21:11:56;13.27;;;4.32;;
63782;SDS011;49925;52.522;5.732;2023-08-07T21:14:23;9.73;;;3.70;;
63782;SDS011;49925;52.522;5.732;2023-08-07T21:16:51;11.68;;;4.10;;
63782;SDS011;49925;52.522;5.732;2023-08-07T21:19:18;11.55;;;3.80;;
63782;SDS011;49925;52.522;5.732;2023-08-07T21:21:45;9.57;;;3.75;;
63782;SDS011;49925;52.522;5.732;2023-08-07T21:24:12;10.05;;;3.60;;
63782;SDS011;49925;52.522;5.732;2023-08-07T21:26:40;9.50;;;3.75;;
63782;SDS011;49925;52.522;5.732;2023-08-07T21:29:07;17.92;;;4.20;;
63782;SDS011;49925;52.522;5.732;2023-08-07T21:31:34;15.07;;;4.40;;
63782;SDS011;49925;52.522;5.732;2023-08-07T21:34:02;14.40;;;3.83;;
63782;SDS011;49925;52.522;5.732;2023-08-07T21:36:29;8.82;;;4.10;;
63782;SDS011;49925;52.522;5.732;2023-08-07T21:38:56;11.77;;;4.05;;
63782;SDS011;49925;52.522;5.732;2023-08-07T21:41:24;11.15;;;4.22;;
63782;SDS011;49925;52.522;5.732;2023-08-07T21:43:52;6.28;;;3.50;;
63782;SDS011;49925;52.522;5.732;2023-08-07T21:46:19;10.13;;;3.90;;
63782;SDS011;49925;52.522;5.732;2023-08-07T21:48:50;9.75;;;3.67;;
63782;SDS011;49925;52.522;5.732;2023-08-07T21:51:17;13.45;;;4.00;;
63782;SDS011;49925;52.522;5.732;2023-08-07T21:53:44;15.40;;;4.22;;
63782;SDS011;49925;52.522;5.732;2023-08-07T21:56:11;11.07;;;4.28;;
63782;SDS011;49925;52.522;5.732;2023-08-07T21:58:39;12.40;;;4.40;;
63782;SDS011;49925;52.522;5.732;2023-08-07T22:01:06;10.73;;;4.13;;
63782;SDS011;49925;52.522;5.732;2023-08-07T22:03:33;7.53;;;3.95;;
63782;SDS011;49925;52.522;5.732;2023-08-07T22:06:01;10.18;;;4.32;;
63782;SDS011;49925;52.522;5.732;2023-08-07T22:08:29;12.13;;;4.32;;
63782;SDS011;49925;52.522;5.732;2023-08-07T22:10:58;13.98;;;4.70;;
63782;SDS011;49925;52.522;5.732;2023-08-07T22:13:26;14.40;;;5.38;;
63782;SDS011;49925;52.522;5.732;2023-08-07T22:15:53;13.07;;;5.50;;
63782;SDS011;49925;52.522;5.732;2023-08-07T22:18:21;16.90;;;6.05;;
63782;SDS011;49925;52.522;5.732;2023-08-07T22:20:49;12.95;;;5.50;;
63782;SDS011;49925;52.522;5.732;2023-08-07T22:23:16;15.40;;;5.60;;
63782;SDS011;49925;52.522;5.732;2023-08-07T22:25:43;11.55;;;5.20;;
63782;SDS011;49925;52.522;5.732;2023-08-07T22:28:10;18.02;;;6.03;;
63782;SDS011;49925;52.522;5.732;2023-08-07T22:30:37;11.43;;;5.32;;
63782;SDS011;49925;52.522;5.732;2023-08-07T22:33:05;12.05;;;5.28;;
63782;SDS011;49925;52.522;5.732;2023-08-07T22:35:32;13.02;;;4.90;;
63782;SDS011;49925;52.522;5.732;2023-08-07T22:37:59;9.57;;;5.05;;
63782;SDS011;49925;52.522;5.732;2023-08-07T22:40:26;16.10;;;5.57;;
63782;SDS011;49925;52.522;5.732;2023-08-07T22:42:54;16.98;;;5.63;;
63782;SDS011;49925;52.522;5.732;2023-08-07T22:45:21;17.95;;;5.65;;
63782;SDS011;49925;52.522;5.732;2023-08-07T22:47:48;10.95;;;5.40;;
63782;SDS011;49925;52.522;5.732;2023-08-07T22:50:17;14.50;;;5.13;;
63782;SDS011;49925;52.522;5.732;2023-08-07T22:52:44;15.82;;;5.88;;
63782;SDS011;49925;52.522;5.732;2023-08-07T22:55:12;15.57;;;5.72;;
63782;SDS011;49925;52.522;5.732;2023-08-07T22:57:39;18.40;;;5.72;;
63782;SDS011;49925;52.522;5.732;2023-08-07T23:00:06;12.38;;;5.47;;
63782;SDS011;49925;52.522;5.732;2023-08-07T23:02:37;19.30;;;6.65;;
63782;SDS011;49925;52.522;5.732;2023-08-07T23:05:04;10.88;;;6.13;;
63782;SDS011;49925;52.522;5.732;2023-08-07T23:07:34;18.85;;;6.72;;
63782;SDS011;49925;52.522;5.732;2023-08-07T23:10:01;14.82;;;6.15;;
63782;SDS011;49925;52.522;5.732;2023-08-07T23:12:29;15.98;;;6.60;;
63782;SDS011;49925;52.522;5.732;2023-08-07T23:14:56;22.27;;;6.40;;
63782;SDS011;49925;52.522;5.732;2023-08-07T23:17:23;16.63;;;6.40;;
63782;SDS011;49925;52.522;5.732;2023-08-07T23:19:51;20.30;;;6.38;;
63782;SDS011;49925;52.522;5.732;2023-08-07T23:22:18;14.60;;;6.32;;
63782;SDS011;49925;52.522;5.732;2023-08-07T23:24:45;16.00;;;5.90;;
63782;SDS011;49925;52.522;5.732;2023-08-07T23:27:12;15.07;;;6.00;;
63782;SDS011;49925;52.522;5.732;2023-08-07T23:29:40;14.00;;;5.93;;
63782;SDS011;49925;52.522;5.732;2023-08-07T23:32:09;17.52;;;5.95;;
63782;SDS011;49925;52.522;5.732;2023-08-07T23:34:36;14.57;;;5.68;;
63782;SDS011;49925;52.522;5.732;2023-08-07T23:37:03;17.80;;;6.03;;
63782;SDS011;49925;52.522;5.732;2023-08-07T23:39:31;16.05;;;6.20;;
63782;SDS011;49925;52.522;5.732;2023-08-07T23:41:58;19.63;;;6.00;;
63782;SDS011;49925;52.522;5.732;2023-08-07T23:44:26;20.08;;;5.85;;
63782;SDS011;49925;52.522;5.732;2023-08-07T23:46:54;15.00;;;5.22;;
63782;SDS011;49925;52.522;5.732;2023-08-07T23:49:21;17.00;;;5.45;;
63782;SDS011;49925;52.522;5.732;2023-08-07T23:51:48;15.75;;;5.75;;
63782;SDS011;49925;52.522;5.732;2023-08-07T23:54:16;9.70;;;5.20;;
63782;SDS011;49925;52.522;5.732;2023-08-07T23:56:43;13.45;;;5.70;;
63782;SDS011;49925;52.522;5.732;2023-08-07T23:59:10;28.13;;;6.20;;
